Pagina principale
METAR-TAF:

METAR-TAF

Aeroporti :

Aeroporto di Cuneo-Levaldigi

Cuneo, Italia

latitudine: 44-32-47N, longitudine: 007-37-20E, altezza: 386 m

Osservazione

Il bollettino è stato emesso 39 minuti fa, alle 11:50 UTC
Vento 6 kt da nord/nord-ovest, variando fra ovest e nord/nord-est
Temperature 1°C
Umidità 55%
Pressione 1036 hPa
Visibilità 10 km o più

METAR: LIMZ 091150Z AUTO 34006KT 270V030 9999 FEW059/// 01/M07 Q1036

Ora: 13:29 (12:29 UTC)

Previsione

Il bollettino è stato emesso 1 ora e 29 minuti fa, alle 11:00 UTC
Previsione valida dal 09 alle 12 UTC al 10 alle 12 UTC
Vento 5 kt da direzioni variabili
Visibilità 10 km o più
nessuna nube inferiore a 1500 m e nessun cumulonembo

TAF: LIMZ 091100Z 0912/1012 VRB05KT CAVOK

Osservazioni e previsioni meteorologiche di più di 4000 aeroporti (messaggi METAR e TAF).

Le stazioni disponibili sono rappresentate dai dischi gialli e rossi sulla carta.

Puntare il mouse per vedere il nome della stazione.

Clicca sopra per visualizzare le osservazioni e previsioni meteorologiche.

Per cambiare la mappa : fare clic sui pulsanti verdi con una croce nera per ingrandire, il pulsante verde con un trattino per diminuire, o sulla freccia verde per le mappe adiacenti.


METAR-TAF: